Time;durP1;ratioP1;P1;durP2;ratioP2;P2;SDS_P1;SDS_P2;PMS_P1;PMS_P2;Temp;Humidity;BMP_temperature;BMP_pressure;BME280_temperature;BME280_humidity;BME280_pressure;Samples;Min_cycle;Max_cycle;Signal;HPM_P1;HPM_P2
2024/01/31 00:04:51;;;;;;;2.60;0.50;;;;;;;7.01;100.00;103111.72;10309829;28;20062;-62
2024/01/31 00:10:13;;;;;;;10.93;1.10;;;;;;;6.93;100.00;103118.41;10308705;28;20197;-64
2024/01/31 00:15:35;;;;;;;4.03;0.93;;;;;;;6.95;100.00;103115.88;10312110;28;20063;-64
2024/01/31 00:20:57;;;;;;;3.47;0.75;;;;;;;6.97;100.00;103127.94;10303277;28;20055;-65
2024/01/31 00:26:19;;;;;;;6.32;1.17;;;;;;;6.86;100.00;103134.56;10307437;28;20042;-65
2024/01/31 00:31:40;;;;;;;4.18;1.10;;;;;;;6.83;100.00;103137.06;10316497;28;20678;-65
2024/01/31 00:37:02;;;;;;;7.55;0.70;;;;;;;6.76;100.00;103160.03;10308684;28;20074;-65
2024/01/31 00:42:24;;;;;;;6.07;1.08;;;;;;;6.70;100.00;103165.91;10317154;28;20053;-64
2024/01/31 00:47:46;;;;;;;5.60;0.95;;;;;;;6.64;100.00;103170.91;10303580;28;20064;-63
2024/01/31 00:53:07;;;;;;;5.15;0.90;;;;;;;6.68;100.00;103177.88;10305808;28;20047;-64
2024/01/31 00:58:29;;;;;;;8.35;0.80;;;;;;;6.65;100.00;103180.38;10311705;28;20053;-64
2024/01/31 01:03:51;;;;;;;9.23;1.27;;;;;;;6.64;100.00;103183.78;10302357;28;20113;-62
2024/01/31 01:09:13;;;;;;;8.25;0.95;;;;;;;6.59;100.00;103198.22;10303756;28;20057;-65
2024/01/31 01:14:34;;;;;;;5.95;0.98;;;;;;;6.60;100.00;103192.25;10295227;28;20047;-65
2024/01/31 01:19:56;;;;;;;10.98;1.02;;;;;;;6.55;100.00;103191.28;10305361;28;20046;-65
2024/01/31 01:25:20;;;;;;;7.18;1.08;;;;;;;6.54;100.00;103193.78;10302326;28;20105;-65
2024/01/31 01:30:44;;;;;;;4.63;1.23;;;;;;;6.50;100.00;103200.56;10308725;28;20055;-65
2024/01/31 01:36:06;;;;;;;5.88;0.90;;;;;;;6.51;100.00;103204.88;10319347;28;20050;-65
2024/01/31 01:41:28;;;;;;;12.35;1.35;;;;;;;6.53;100.00;103207.50;10331109;28;20051;-65
2024/01/31 01:46:50;;;;;;;8.07;1.20;;;;;;;6.45;100.00;103209.88;10314322;28;20049;-65
2024/01/31 01:52:13;;;;;;;6.20;1.45;;;;;;;6.44;100.00;103210.72;10313208;28;20074;-65
2024/01/31 01:57:38;;;;;;;7.53;1.30;;;;;;;6.46;100.00;103219.34;10332862;28;20054;-65
2024/01/31 02:03:01;;;;;;;6.20;1.33;;;;;;;6.54;100.00;103210.09;10310038;28;20046;-65
2024/01/31 02:08:23;;;;;;;8.90;1.30;;;;;;;6.49;100.00;103210.81;10329992;28;20054;-65
2024/01/31 02:13:44;;;;;;;9.38;1.70;;;;;;;6.50;100.00;103218.56;10320113;28;20038;-65
2024/01/31 02:19:06;;;;;;;8.63;1.20;;;;;;;6.39;100.00;103214.00;10305487;28;20129;-65
2024/01/31 02:24:28;;;;;;;8.35;1.30;;;;;;;6.40;100.00;103206.31;10313479;28;20046;-65
2024/01/31 02:29:50;;;;;;;8.50;1.40;;;;;;;6.41;100.00;103218.31;10313330;28;20061;-65
2024/01/31 02:35:12;;;;;;;10.15;1.85;;;;;;;6.41;100.00;103215.75;10320355;28;20064;-65
2024/01/31 02:40:34;;;;;;;7.50;1.38;;;;;;;6.40;100.00;103201.19;10329299;28;20044;-65
2024/01/31 02:45:55;;;;;;;12.57;1.55;;;;;;;6.37;100.00;103200.22;10314190;28;20101;-64
2024/01/31 02:51:17;;;;;;;11.68;1.48;;;;;;;6.40;100.00;103200.28;10314263;28;20579;-65
2024/01/31 02:56:39;;;;;;;8.30;1.58;;;;;;;6.41;100.00;103197.75;10314491;28;20050;-65
2024/01/31 03:02:02;;;;;;;8.70;1.30;;;;;;;6.44;100.00;103196.97;10316391;28;20046;-65
2024/01/31 03:07:24;;;;;;;9.20;1.38;;;;;;;6.41;100.00;103197.75;10324720;28;20046;-65
2024/01/31 03:12:46;;;;;;;7.15;1.17;;;;;;;6.42;100.00;103212.38;10317741;28;20054;-65
2024/01/31 03:18:07;;;;;;;6.35;1.35;;;;;;;6.38;100.00;103202.84;10311834;28;20062;-65
2024/01/31 03:23:29;;;;;;;4.90;1.15;;;;;;;6.42;100.00;103201.22;10315948;28;20046;-65
2024/01/31 03:28:51;;;;;;;6.70;1.10;;;;;;;6.43;100.00;103201.25;10296679;28;20089;-64
2024/01/31 03:34:14;;;;;;;7.38;0.80;;;;;;;6.43;100.00;103206.38;10314151;28;20190;-65
2024/01/31 03:39:35;;;;;;;10.63;1.50;;;;;;;6.45;100.00;103199.59;10315628;28;20074;-65
2024/01/31 03:44:57;;;;;;;10.25;1.30;;;;;;;6.47;100.00;103197.91;10310196;28;20066;-65
2024/01/31 03:50:19;;;;;;;7.38;1.30;;;;;;;6.47;100.00;103197.03;10321643;28;20050;-65
2024/01/31 03:55:41;;;;;;;11.85;1.27;;;;;;;6.43;100.00;103210.69;10318549;28;20054;-65
2024/01/31 04:01:03;;;;;;;9.38;1.40;;;;;;;6.37;100.00;103205.38;10312018;28;20054;-65
2024/01/31 04:06:25;;;;;;;7.55;1.15;;;;;;;6.39;100.00;103199.41;10314283;28;20442;-65
2024/01/31 04:11:47;;;;;;;12.05;1.42;;;;;;;6.34;100.00;103213.88;10325260;28;20816;-65
2024/01/31 04:17:08;;;;;;;10.32;1.30;;;;;;;6.38;100.00;103207.09;10310155;28;20051;-65
2024/01/31 04:22:30;;;;;;;13.35;1.20;;;;;;;6.36;100.00;103194.22;10328858;28;20085;-65
2024/01/31 04:27:52;;;;;;;5.57;1.00;;;;;;;6.37;100.00;103193.41;10312668;28;20518;-65
2024/01/31 04:33:13;;;;;;;9.38;1.42;;;;;;;6.36;100.00;103194.22;10308440;28;20039;-64
2024/01/31 04:38:35;;;;;;;8.60;1.00;;;;;;;6.40;100.00;103188.31;10300919;28;20246;-63
2024/01/31 04:43:57;;;;;;;7.35;1.02;;;;;;;6.38;99.23;103187.41;10305127;28;20046;-65
2024/01/31 04:49:19;;;;;;;8.20;1.20;;;;;;;6.38;98.74;103189.97;10305908;28;20058;-65
2024/01/31 04:54:41;;;;;;;6.40;1.13;;;;;;;6.39;98.18;103189.13;10305142;28;20045;-65
2024/01/31 05:00:04;;;;;;;9.13;1.20;;;;;;;6.40;97.43;103193.47;10310925;28;20050;-65
2024/01/31 05:05:26;;;;;;;10.40;1.30;;;;;;;6.38;97.52;103191.66;10322160;28;20084;-65
2024/01/31 05:10:48;;;;;;;8.65;1.20;;;;;;;6.31;96.77;103195.81;10322936;28;20052;-65
2024/01/31 05:16:10;;;;;;;12.82;1.42;;;;;;;6.29;96.31;103210.31;10315157;28;21003;-65
2024/01/31 05:21:31;;;;;;;4.43;1.30;;;;;;;6.33;97.31;103200.97;10321455;28;20050;-65
2024/01/31 05:26:53;;;;;;;11.20;1.30;;;;;;;6.28;96.26;103195.69;10313409;28;20278;-65
2024/01/31 05:32:15;;;;;;;7.97;0.88;;;;;;;6.23;94.60;103201.59;10314865;28;20042;-65
2024/01/31 05:37:37;;;;;;;7.78;1.02;;;;;;;6.26;96.71;103205.09;10318735;28;20061;-65
2024/01/31 05:43:01;;;;;;;8.93;1.10;;;;;;;6.18;94.89;103209.16;10319160;28;20061;-65
2024/01/31 05:48:22;;;;;;;9.38;1.10;;;;;;;6.14;94.38;103207.34;10315030;28;20059;-65
2024/01/31 05:53:44;;;;;;;9.38;1.10;;;;;;;6.16;97.73;103215.09;10330116;28;20134;-65
2024/01/31 05:59:08;;;;;;;7.28;1.25;;;;;;;6.07;96.16;103221.75;10319557;28;20058;-64
2024/01/31 06:04:30;;;;;;;7.22;1.25;;;;;;;6.09;98.11;103229.47;10316123;28;20057;-65
2024/01/31 06:09:52;;;;;;;12.38;1.35;;;;;;;6.02;96.66;103228.44;10317848;28;20694;-65
2024/01/31 06:15:14;;;;;;;5.25;1.30;;;;;;;5.97;95.87;103226.56;10319717;28;20042;-65
2024/01/31 06:20:40;;;;;;;8.18;1.20;;;;;;;5.92;94.49;103235.84;10317133;28;20217;-65
2024/01/31 06:26:02;;;;;;;8.85;1.50;;;;;;;5.95;96.34;103235.97;10313075;28;20058;-64
2024/01/31 06:31:27;;;;;;;6.53;1.15;;;;;;;5.93;95.30;103247.88;10317609;28;20514;-65
2024/01/31 06:36:49;;;;;;;12.45;1.20;;;;;;;5.84;94.72;103247.63;10317366;28;20104;-65
2024/01/31 06:42:10;;;;;;;9.13;1.33;;;;;;;5.81;94.64;103247.50;10318828;28;20046;-65
2024/01/31 06:47:32;;;;;;;5.60;0.93;;;;;;;5.74;95.19;103261.88;10331046;28;20545;-65
2024/01/31 06:52:54;;;;;;;7.07;1.10;;;;;;;5.83;97.10;103261.28;10305321;28;20043;-65
2024/01/31 06:58:16;;;;;;;5.72;1.20;;;;;;;5.74;95.00;103271.25;10312843;28;20682;-65
2024/01/31 07:03:37;;;;;;;6.70;1.00;;;;;;;5.68;94.89;103269.38;10319074;28;20077;-64
2024/01/31 07:08:59;;;;;;;9.90;1.63;;;;;;;5.66;96.09;103283.03;10333157;28;20069;-65
2024/01/31 07:14:21;;;;;;;4.50;1.33;;;;;;;5.57;95.63;103293.00;10319001;28;20625;-65
2024/01/31 07:19:43;;;;;;;10.82;1.48;;;;;;;5.57;95.91;103298.13;10311239;28;20050;-65
2024/01/31 07:25:10;;;;;;;5.03;1.40;;;;;;;5.47;95.38;103311.53;10320673;28;20069;-64
2024/01/31 07:30:32;;;;;;;8.20;1.40;;;;;;;5.39;96.76;103323.25;10309014;28;20403;-66
2024/01/31 07:35:54;;;;;;;6.38;1.20;;;;;;;5.23;96.33;103333.84;10318393;28;20062;-65
2024/01/31 07:41:16;;;;;;;5.72;1.38;;;;;;;5.31;97.31;103340.13;10312013;28;20399;-64
2024/01/31 07:46:39;;;;;;;10.02;1.67;;;;;;;5.28;96.95;103325.47;10323636;28;20050;-65
2024/01/31 07:52:02;;;;;;;8.18;1.55;;;;;;;5.29;97.59;103321.22;10317630;28;20077;-65
2024/01/31 07:57:24;;;;;;;12.52;1.38;;;;;;;5.32;96.79;103323.88;10314861;28;20625;-65
2024/01/31 08:02:46;;;;;;;6.65;1.23;;;;;;;5.25;96.21;103345.94;10303902;28;20050;-65
2024/01/31 08:08:07;;;;;;;5.90;0.95;;;;;;;5.27;96.22;103340.84;10315400;28;20081;-65
2024/01/31 08:13:29;;;;;;;6.65;1.08;;;;;;;5.26;97.30;103350.22;10317822;28;20053;-65
2024/01/31 08:18:53;;;;;;;3.88;1.05;;;;;;;5.28;97.19;103357.97;10312779;28;20074;-65
2024/01/31 08:24:15;;;;;;;13.82;1.70;;;;;;;5.28;96.34;103324.59;10312643;28;20517;-65
2024/01/31 08:29:38;;;;;;;7.38;0.80;;;;;;;5.36;95.52;103328.28;10302125;28;20050;-64
2024/01/31 08:35:03;;;;;;;8.32;1.20;;;;;;;5.43;95.47;103346.50;10320318;28;20057;-64
2024/01/31 08:40:25;;;;;;;2.00;0.80;;;;;;;5.44;95.68;103337.13;10308974;28;20406;-65
2024/01/31 08:45:47;;;;;;;10.10;1.35;;;;;;;5.49;95.37;103325.28;10313953;28;20050;-65
2024/01/31 08:51:09;;;;;;;5.40;0.93;;;;;;;5.56;96.02;103329.78;10308632;28;20092;-64
2024/01/31 08:56:31;;;;;;;5.85;1.25;;;;;;;5.59;94.38;103332.44;10303614;28;20050;-65
2024/01/31 09:01:53;;;;;;;3.00;0.98;;;;;;;5.66;94.88;103340.38;10308308;28;20128;-65
2024/01/31 09:07:15;;;;;;;4.05;1.10;;;;;;;5.70;93.76;103354.19;10300757;28;20055;-64
2024/01/31 09:12:37;;;;;;;7.57;1.35;;;;;;;5.76;94.50;103341.53;10310621;28;20043;-65
2024/01/31 09:17:58;;;;;;;4.38;1.10;;;;;;;5.75;92.25;103324.41;10309164;28;20061;-65
2024/01/31 09:23:21;;;;;;;6.15;1.20;;;;;;;5.87;92.46;103306.78;10309163;28;20054;-65
2024/01/31 09:28:43;;;;;;;4.32;1.20;;;;;;;5.89;92.90;103287.16;10304574;28;20065;-65
2024/01/31 09:34:04;;;;;;;7.03;1.88;;;;;;;5.96;93.22;103271.09;10304651;28;20545;-65
2024/01/31 09:39:26;;;;;;;3.13;1.10;;;;;;;6.03;92.43;103265.28;10306261;28;20157;-65
2024/01/31 09:44:50;;;;;;;4.00;1.00;;;;;;;6.08;91.40;103266.28;10307680;28;20046;-65
2024/01/31 09:50:12;;;;;;;5.60;1.00;;;;;;;6.15;91.24;103286.19;10325384;28;20050;-64
2024/01/31 09:55:35;;;;;;;5.97;0.90;;;;;;;6.19;90.85;103282.84;10305733;28;21195;-65
2024/01/31 10:01:03;;;;;;;5.95;1.00;;;;;;;6.26;91.67;103259.09;10301052;28;20406;-65
2024/01/31 10:06:35;;;;;;;4.35;1.25;;;;;;;6.24;90.86;103259.88;10313022;28;20058;-65
2024/01/31 10:11:58;;;;;;;6.88;1.23;;;;;;;6.26;89.60;103274.50;10330954;28;20057;-64
2024/01/31 10:17:21;;;;;;;4.10;1.10;;;;;;;6.30;89.95;103260.88;10308516;28;20513;-64
2024/01/31 10:22:46;;;;;;;4.05;1.63;;;;;;;6.33;89.88;103248.13;10313961;28;20680;-64
2024/01/31 10:28:08;;;;;;;6.00;1.23;;;;;;;6.37;90.94;103220.78;10312217;28;20050;-64
2024/01/31 10:33:32;;;;;;;5.68;1.23;;;;;;;6.42;89.84;103242.34;10306731;28;20053;-64
2024/01/31 10:38:54;;;;;;;5.72;1.70;;;;;;;6.48;89.45;103247.66;10311738;28;20038;-64
2024/01/31 10:44:16;;;;;;;5.53;2.17;;;;;;;6.48;87.88;103243.41;10317890;28;20124;-64
2024/01/31 10:49:38;;;;;;;5.20;2.15;;;;;;;6.52;88.37;103237.47;10314285;28;20091;-64
2024/01/31 10:55:03;;;;;;;5.40;3.00;;;;;;;6.54;88.08;103225.53;10307224;28;20684;-64
2024/01/31 11:00:29;;;;;;;5.25;2.78;;;;;;;6.59;87.32;103226.50;10307967;28;20501;-64
2024/01/31 11:05:51;;;;;;;8.57;2.50;;;;;;;6.61;85.31;103217.13;10308165;28;20133;-65
2024/01/31 11:11:18;;;;;;;5.20;2.30;;;;;;;6.60;83.90;103199.09;10313288;28;20057;-64
2024/01/31 11:16:41;;;;;;;;;;;;;;;6.67;84.63;103191.56;10306090;28;20594;-64
2024/01/31 11:22:03;;;;;;;9.57;2.30;;;;;;;6.74;84.76;103180.56;10308255;28;19931;-64
2024/01/31 11:27:26;;;;;;;3.42;1.80;;;;;;;6.77;84.35;103162.66;10316008;28;20144;-64
2024/01/31 11:32:48;;;;;;;5.43;2.00;;;;;;;6.75;83.58;103159.19;10326329;28;20074;-64
2024/01/31 11:38:15;;;;;;;5.72;2.30;;;;;;;6.83;83.00;103129.31;10331410;28;20530;-64
2024/01/31 11:43:37;;;;;;;5.40;1.98;;;;;;;6.87;83.26;103126.00;10314062;28;20054;-65
2024/01/31 11:48:59;;;;;;;5.35;2.50;;;;;;;6.78;82.21;103097.50;10309873;28;20058;-64
2024/01/31 11:54:21;;;;;;;4.07;2.13;;;;;;;6.85;83.36;103089.06;10310386;28;20047;-64
2024/01/31 11:59:43;;;;;;;4.18;2.20;;;;;;;6.88;83.26;103066.00;10310872;28;20525;-67
2024/01/31 12:05:05;;;;;;;4.57;2.20;;;;;;;6.90;82.96;103050.59;10314616;28;20050;-64
2024/01/31 12:10:28;;;;;;;4.70;2.50;;;;;;;7.03;83.58;103040.53;10311187;28;20047;-64
2024/01/31 12:15:50;;;;;;;2.65;2.10;;;;;;;7.11;82.52;103036.44;10303044;28;20828;-65
2024/01/31 12:21:17;;;;;;;4.97;2.67;;;;;;;7.09;80.47;103032.97;10298495;28;20054;-65
2024/01/31 12:26:39;;;;;;;4.25;2.67;;;;;;;7.08;80.84;103014.91;10321760;28;20057;-65
2024/01/31 12:32:01;;;;;;;4.60;2.42;;;;;;;7.14;81.06;103000.44;10307215;28;20506;-65
2024/01/31 12:37:23;;;;;;;3.88;3.00;;;;;;;7.19;81.36;103015.13;10326234;28;20057;-65
2024/01/31 12:42:45;;;;;;;7.22;3.20;;;;;;;7.24;80.92;103004.06;10318175;28;20045;-65
2024/01/31 12:48:07;;;;;;;6.13;3.63;;;;;;;7.24;80.55;102991.19;10302601;28;20837;-65
2024/01/31 12:53:29;;;;;;;6.00;3.70;;;;;;;7.28;81.87;102976.66;10299236;28;20141;-65
2024/01/31 12:58:53;;;;;;;5.43;4.05;;;;;;;7.33;80.95;102983.63;10301493;28;20148;-65
2024/01/31 13:04:15;;;;;;;6.68;4.30;;;;;;;7.34;79.05;102994.81;10306879;28;20053;-64
2024/01/31 13:09:37;;;;;;;6.32;5.03;;;;;;;7.37;80.88;102992.28;10320865;28;20054;-64
2024/01/31 13:14:59;;;;;;;7.40;5.38;;;;;;;7.36;80.81;102975.94;10306975;28;20061;-64
2024/01/31 13:20:23;;;;;;;6.00;5.28;;;;;;;7.41;82.31;102964.03;10293961;28;20066;-64
2024/01/31 13:25:44;;;;;;;9.45;5.85;;;;;;;7.38;81.71;102968.28;10310742;28;20054;-63
2024/01/31 13:31:06;;;;;;;8.13;5.53;;;;;;;7.43;82.26;102953.75;10304275;28;20039;-64
2024/01/31 13:36:28;;;;;;;6.55;4.78;;;;;;;7.39;81.68;102929.66;10314816;28;20230;-64
2024/01/31 13:41:50;;;;;;;5.60;4.07;;;;;;;7.43;82.10;102915.13;10317209;28;20054;-64
2024/01/31 13:47:11;;;;;;;6.10;3.88;;;;;;;7.45;82.76;102898.00;10305922;28;20066;-64
2024/01/31 13:52:33;;;;;;;7.32;4.22;;;;;;;7.45;82.58;102892.84;10321992;28;20047;-64
2024/01/31 13:57:55;;;;;;;5.45;3.60;;;;;;;7.46;81.07;102894.56;10312825;28;20046;-64
2024/01/31 14:03:16;;;;;;;4.90;3.40;;;;;;;7.46;81.81;102880.00;10312318;28;20137;-64
2024/01/31 14:08:38;;;;;;;6.35;3.40;;;;;;;7.48;81.68;102862.84;10312783;28;20065;-65
2024/01/31 14:14:00;;;;;;;7.22;3.95;;;;;;;7.49;81.75;102849.13;10315604;28;20039;-65
2024/01/31 14:19:21;;;;;;;6.80;4.30;;;;;;;7.57;82.15;102841.50;10314361;28;20050;-63
2024/01/31 14:24:43;;;;;;;7.45;4.63;;;;;;;7.60;82.05;102820.97;10311037;28;20158;-64
2024/01/31 14:30:06;;;;;;;6.82;5.10;;;;;;;7.62;81.78;102808.94;10311931;28;20121;-64
2024/01/31 14:35:28;;;;;;;6.88;5.47;;;;;;;7.66;81.49;102784.97;10303406;28;20151;-63
2024/01/31 14:40:49;;;;;;;7.65;5.72;;;;;;;7.65;80.61;102788.41;10293392;28;20058;-64
2024/01/31 14:46:11;;;;;;;8.10;5.95;;;;;;;7.68;81.11;102778.13;10309585;28;20407;-64
2024/01/31 14:51:33;;;;;;;8.02;5.20;;;;;;;7.72;81.47;102756.72;10311922;28;20058;-63
2024/01/31 14:56:55;;;;;;;7.22;5.82;;;;;;;7.72;81.61;102748.97;10303539;28;20077;-63
2024/01/31 15:02:17;;;;;;;6.80;5.88;;;;;;;7.72;81.97;102754.13;10319237;28;20418;-63
2024/01/31 15:07:38;;;;;;;6.75;5.68;;;;;;;7.71;81.36;102757.56;10315525;28;20061;-64
2024/01/31 15:13:00;;;;;;;7.18;6.00;;;;;;;7.72;82.03;102757.59;10306962;28;20046;-63
2024/01/31 15:18:22;;;;;;;6.35;5.32;;;;;;;7.71;82.19;102740.38;10321709;28;20410;-64
2024/01/31 15:23:44;;;;;;;7.78;5.45;;;;;;;7.68;82.17;102727.47;10317151;28;20054;-63
2024/01/31 15:29:05;;;;;;;6.10;5.13;;;;;;;7.73;82.76;102718.06;10324909;28;20062;-63
2024/01/31 15:34:27;;;;;;;6.93;5.25;;;;;;;7.70;82.39;102714.59;10311730;28;20490;-63
2024/01/31 15:39:49;;;;;;;8.20;5.60;;;;;;;7.70;82.72;102709.44;10309213;28;20057;-63
2024/01/31 15:45:11;;;;;;;7.32;5.13;;;;;;;7.66;83.04;102707.69;10310031;28;20046;-63
2024/01/31 15:50:33;;;;;;;7.55;5.13;;;;;;;7.70;83.34;102694.00;10316928;28;20038;-63
2024/01/31 15:55:55;;;;;;;8.15;5.53;;;;;;;7.71;83.75;102685.44;10311853;28;20073;-63
2024/01/31 16:01:17;;;;;;;10.27;6.00;;;;;;;7.75;83.71;102687.16;10308489;28;20475;-63
2024/01/31 16:06:51;;;;;;;11.00;6.40;;;;;;;7.72;84.13;102666.53;10323384;28;20053;-63
2024/01/31 16:12:13;;;;;;;7.85;5.88;;;;;;;7.73;83.91;102647.63;10319173;28;20058;-64
2024/01/31 16:17:35;;;;;;;10.90;6.10;;;;;;;7.73;84.22;102627.91;10309528;28;20518;-63
2024/01/31 16:22:57;;;;;;;10.93;6.70;;;;;;;7.72;84.47;102597.84;10304660;28;20101;-63
2024/01/31 16:28:20;;;;;;;9.30;6.60;;;;;;;7.64;84.05;102558.25;10304683;28;20070;-63
2024/01/31 16:33:42;;;;;;;10.75;7.72;;;;;;;7.67;84.54;102560.00;10310613;28;20046;-63
2024/01/31 16:39:07;;;;;;;11.35;7.30;;;;;;;7.64;84.63;102549.66;10305892;28;20097;-63
2024/01/31 16:44:29;;;;;;;11.93;7.70;;;;;;;7.57;84.97;102541.00;10311340;28;20046;-63
2024/01/31 16:49:51;;;;;;;13.52;8.50;;;;;;;7.65;84.79;102520.47;10309610;28;20058;-63
2024/01/31 16:55:13;;;;;;;14.52;8.82;;;;;;;7.66;84.65;102532.50;10312984;28;20396;-63
2024/01/31 17:00:35;;;;;;;14.63;9.40;;;;;;;7.65;85.49;102505.03;10305849;28;20050;-64
2024/01/31 17:05:57;;;;;;;18.73;11.35;;;;;;;7.63;85.58;102509.28;10322335;28;20050;-63
2024/01/31 17:11:23;;;;;;;17.67;11.85;;;;;;;7.64;84.93;102521.31;10309539;28;20135;-63
2024/01/31 17:16:45;;;;;;;19.65;13.00;;;;;;;7.67;84.49;102508.47;10313224;28;20624;-63
2024/01/31 17:22:07;;;;;;;19.90;13.23;;;;;;;7.66;83.99;102507.59;10318858;28;20489;-63
2024/01/31 17:27:29;;;;;;;18.95;13.18;;;;;;;7.67;83.25;102500.75;10314181;28;20046;-63
2024/01/31 17:32:51;;;;;;;20.85;14.25;;;;;;;7.70;83.28;102493.03;10312086;28;20076;-63
2024/01/31 17:38:13;;;;;;;22.40;13.23;;;;;;;7.66;84.13;102476.69;10306745;28;20050;-63
2024/01/31 17:43:35;;;;;;;20.45;13.50;;;;;;;7.62;84.80;102453.47;10309999;28;20072;-63
2024/01/31 17:48:58;;;;;;;22.25;13.88;;;;;;;7.59;85.30;102448.28;10304989;28;20193;-63
2024/01/31 17:54:20;;;;;;;20.20;14.50;;;;;;;7.56;85.58;102443.13;10311391;28;20378;-63
2024/01/31 17:59:43;;;;;;;18.88;13.57;;;;;;;7.55;85.22;102438.81;10313357;28;20082;-63
2024/01/31 18:05:05;;;;;;;17.88;12.80;;;;;;;7.57;84.54;102471.47;10309669;28;20450;-63
2024/01/31 18:10:27;;;;;;;16.30;10.75;;;;;;;7.53;83.41;102463.69;10304335;28;20086;-63
2024/01/31 18:15:49;;;;;;;16.35;8.80;;;;;;;7.52;81.58;102446.53;10312055;28;20045;-63
2024/01/31 18:21:10;;;;;;;15.15;7.10;;;;;;;7.52;80.71;102431.06;10320398;28;20056;-63
2024/01/31 18:26:32;;;;;;;13.27;8.20;;;;;;;7.50;81.17;102419.88;10310475;28;20595;-63
2024/01/31 18:31:54;;;;;;;14.30;7.82;;;;;;;7.49;81.48;102405.28;10313973;28;20077;-63
2024/01/31 18:37:17;;;;;;;9.88;6.30;;;;;;;7.44;81.02;102378.63;10315107;28;20415;-63
2024/01/31 18:42:39;;;;;;;10.00;6.10;;;;;;;7.46;80.25;102374.34;10321442;28;20519;-63
2024/01/31 18:48:01;;;;;;;10.13;5.93;;;;;;;7.45;80.43;102382.94;10313563;28;20178;-63
2024/01/31 18:53:23;;;;;;;12.23;5.90;;;;;;;7.47;80.42;102381.25;10318527;28;20648;-64
2024/01/31 18:58:45;;;;;;;10.25;6.70;;;;;;;7.48;81.08;102388.97;10312144;28;20050;-64
2024/01/31 19:04:06;;;;;;;11.60;6.68;;;;;;;7.46;81.04;102369.19;10312950;28;20106;-64
2024/01/31 19:09:28;;;;;;;13.10;7.38;;;;;;;7.45;81.52;102386.38;10302325;28;20056;-64
2024/01/31 19:14:50;;;;;;;12.85;6.93;;;;;;;7.43;81.85;102370.06;10319008;28;20604;-64
2024/01/31 19:20:12;;;;;;;8.70;6.35;;;;;;;7.46;82.13;102356.31;10316221;28;20085;-62
2024/01/31 19:25:34;;;;;;;9.07;5.85;;;;;;;7.48;81.72;102328.88;10311290;28;20038;-63
2024/01/31 19:30:57;;;;;;;12.07;6.65;;;;;;;7.48;82.78;102331.44;10313191;28;20133;-63
2024/01/31 19:36:24;;;;;;;11.50;6.60;;;;;;;7.46;81.32;102312.53;10301109;28;20217;-63
2024/01/31 19:41:46;;;;;;;7.80;6.00;;;;;;;7.46;81.66;102315.13;10296358;28;20682;-63
2024/01/31 19:47:08;;;;;;;9.32;5.38;;;;;;;7.51;80.84;102295.44;10308518;28;20157;-62
2024/01/31 19:52:31;;;;;;;10.52;6.32;;;;;;;7.47;81.01;102288.53;10303336;28;20045;-62
2024/01/31 19:57:52;;;;;;;11.07;6.30;;;;;;;7.42;81.04;102295.34;10297687;28;20137;-62
2024/01/31 20:03:14;;;;;;;11.20;6.28;;;;;;;7.41;81.11;102283.34;10301535;28;20513;-62
2024/01/31 20:08:36;;;;;;;8.35;5.72;;;;;;;7.46;81.65;102271.34;10313054;28;20046;-62
2024/01/31 20:13:58;;;;;;;12.90;5.97;;;;;;;7.43;80.93;102237.88;10295805;28;20090;-63
2024/01/31 20:19:19;;;;;;;13.77;6.10;;;;;;;7.37;81.67;102204.34;10306966;28;20050;-62
2024/01/31 20:24:41;;;;;;;10.82;5.43;;;;;;;7.37;81.39;102214.66;10321427;28;20570;-62
2024/01/31 20:30:04;;;;;;;12.07;5.50;;;;;;;7.36;82.00;102213.78;10300281;28;20331;-62
2024/01/31 20:35:25;;;;;;;10.20;5.80;;;;;;;7.38;81.75;102221.53;10302790;28;20038;-62
2024/01/31 20:40:48;;;;;;;10.07;5.72;;;;;;;7.40;81.82;102219.84;10322563;28;20054;-61
2024/01/31 20:46:17;;;;;;;11.60;5.97;;;;;;;7.42;82.47;102207.81;10302199;28;20050;-62
2024/01/31 20:51:40;;;;;;;12.32;5.90;;;;;;;7.40;82.35;102194.91;10326119;28;20061;-62
2024/01/31 20:57:02;;;;;;;22.05;6.05;;;;;;;7.36;82.46;102187.19;10307109;28;20461;-62
2024/01/31 21:02:26;;;;;;;10.38;6.18;;;;;;;7.39;82.47;102175.19;10307000;28;20402;-62
2024/01/31 21:07:47;;;;;;;12.07;5.85;;;;;;;7.41;82.94;102154.59;10321187;28;20050;-62
2024/01/31 21:13:09;;;;;;;8.90;5.40;;;;;;;7.41;83.00;102144.28;10299555;28;20047;-61
2024/01/31 21:18:32;;;;;;;12.63;6.13;;;;;;;7.40;82.80;102127.97;10305015;28;20058;-61
2024/01/31 21:23:54;;;;;;;9.65;5.35;;;;;;;7.42;83.10;102130.56;10315220;28;20050;-62
2024/01/31 21:29:16;;;;;;;7.22;5.10;;;;;;;7.42;82.88;102127.97;10313070;28;20074;-62
2024/01/31 21:34:37;;;;;;;9.07;5.40;;;;;;;7.44;83.78;102118.56;10296073;28;20066;-62
2024/01/31 21:39:59;;;;;;;7.05;5.22;;;;;;;7.47;83.31;102113.44;10308452;28;20057;-61
2024/01/31 21:45:21;;;;;;;8.48;5.18;;;;;;;7.49;83.48;102112.56;10311540;28;20180;-62
2024/01/31 21:50:42;;;;;;;9.95;5.20;;;;;;;7.52;83.53;102098.84;10308855;28;20569;-62
2024/01/31 21:56:04;;;;;;;9.73;5.60;;;;;;;7.52;84.01;102097.13;10308153;28;20046;-62
2024/01/31 22:01:26;;;;;;;9.27;5.57;;;;;;;7.55;84.29;102091.13;10312703;28;20531;-63
2024/01/31 22:06:48;;;;;;;11.63;5.47;;;;;;;7.61;84.11;102092.00;10314942;28;20050;-62
2024/01/31 22:12:10;;;;;;;10.20;5.40;;;;;;;7.68;83.96;102103.19;10332479;28;20177;-63
2024/01/31 22:17:32;;;;;;;12.43;6.00;;;;;;;7.71;83.95;102087.75;10306588;28;20136;-62
2024/01/31 22:22:54;;;;;;;9.50;5.50;;;;;;;7.69;85.07;102067.09;10324610;28;20145;-63
2024/01/31 22:28:17;;;;;;;11.32;5.97;;;;;;;7.72;85.15;102071.41;10308559;28;20049;-62
2024/01/31 22:33:39;;;;;;;15.90;6.68;;;;;;;7.78;85.56;102066.28;10304691;28;20711;-63
2024/01/31 22:39:01;;;;;;;14.88;6.45;;;;;;;7.76;86.65;102080.88;10310850;28;20046;-63
2024/01/31 22:44:23;;;;;;;10.38;6.10;;;;;;;7.68;88.72;102061.97;10313571;28;20054;-62
2024/01/31 22:49:44;;;;;;;10.02;6.75;;;;;;;7.57;91.86;102058.50;10310399;28;20051;-63
2024/01/31 22:55:07;;;;;;;13.48;7.50;;;;;;;7.39;95.10;102054.19;10308150;28;20069;-62
2024/01/31 23:00:29;;;;;;;14.80;7.78;;;;;;;7.31;97.57;102070.47;10301403;28;20053;-62
2024/01/31 23:05:52;;;;;;;13.68;8.77;;;;;;;7.14;100.00;102068.66;10327036;28;20803;-62
2024/01/31 23:11:15;;;;;;;13.02;8.40;;;;;;;7.09;100.00;102065.22;10312191;28;20069;-62
2024/01/31 23:16:36;;;;;;;13.32;9.35;;;;;;;7.00;100.00;102070.34;10317968;28;20054;-62
2024/01/31 23:21:58;;;;;;;19.08;10.38;;;;;;;6.98;100.00;102064.31;10319285;28;20150;-62
2024/01/31 23:27:20;;;;;;;16.52;10.15;;;;;;;6.88;100.00;102054.84;10322678;28;20516;-62
2024/01/31 23:32:45;;;;;;;17.08;10.65;;;;;;;6.84;100.00;102047.97;10320179;28;20050;-61
2024/01/31 23:38:07;;;;;;;19.83;11.57;;;;;;;6.86;100.00;102050.53;10298315;28;20050;-61
2024/01/31 23:43:29;;;;;;;25.83;11.65;;;;;;;6.82;100.00;102056.53;10307793;28;20648;-61
2024/01/31 23:48:51;;;;;;;17.35;10.85;;;;;;;6.82;100.00;102057.38;10315745;28;20455;-62
2024/01/31 23:54:13;;;;;;;18.25;11.45;;;;;;;6.83;100.00;102053.13;10314963;28;20074;-62
2024/01/31 23:59:34;;;;;;;17.80;12.45;;;;;;;6.84;100.00;102054.81;10314736;28;20430;-63
